Time;durP1;ratioP1;P1;durP2;ratioP2;P2;SDS_P1;SDS_P2;PMS_P1;PMS_P2;Temp;Humidity;BMP_temperature;BMP_pressure;BME280_temperature;BME280_humidity;BME280_pressure;Samples;Min_cycle;Max_cycle;Signal;HPM_P1;HPM_P2
2023/09/21 00:01:03;;;;;;;3.17;2.58;;;19.30;99.90;;;;;;5073424;28;20035;-72
2023/09/21 00:03:35;;;;;;;4.80;2.60;;;19.30;99.90;;;;;;5072337;28;20017;-72
2023/09/21 00:06:01;;;;;;;;;;;19.40;99.90;;;;;;5067893;28;20033;-72
2023/09/21 00:08:27;;;;;;;6.93;2.17;;;19.40;99.90;;;;;;5068571;28;19922;-71
2023/09/21 00:10:54;;;;;;;2.83;2.17;;;19.50;99.90;;;;;;5069085;28;20025;-72
2023/09/21 00:13:27;;;;;;;2.30;2.03;;;19.50;99.90;;;;;;5072049;28;20033;-72
2023/09/21 00:15:55;;;;;;;;;;;19.60;99.90;;;;;;5066739;28;20047;-72
2023/09/21 00:18:23;;;;;;;3.15;2.03;;;19.50;99.90;;;;;;5067677;28;19912;-72
2023/09/21 00:20:52;;;;;;;3.58;2.42;;;19.50;99.90;;;;;;5074207;28;20391;-73
2023/09/21 00:23:25;;;;;;;2.95;2.25;;;19.60;99.90;;;;;;5073337;28;20020;-74
2023/09/21 00:25:57;;;;;;;3.78;2.40;;;19.60;99.90;;;;;;5069976;28;20082;-72
2023/09/21 00:28:27;;;;;;;4.28;1.98;;;19.70;99.90;;;;;;5071543;28;20099;-73
2023/09/21 00:30:57;;;;;;;3.40;1.98;;;19.70;99.90;;;;;;5081325;28;20020;-73
2023/09/21 00:33:27;;;;;;;2.88;2.05;;;19.70;99.90;;;;;;5076480;28;20043;-72
2023/09/21 00:35:53;;;;;;;2.70;2.10;;;19.70;99.90;;;;;;5065730;28;20029;-73
2023/09/21 00:38:20;;;;;;;3.17;1.83;;;19.70;99.90;;;;;;5071737;28;20031;-72
2023/09/21 00:40:47;;;;;;;4.97;2.30;;;19.70;99.90;;;;;;5084907;28;20107;-73
2023/09/21 00:43:21;;;;;;;3.20;2.00;;;19.60;99.90;;;;;;5072434;28;20055;-72
2023/09/21 00:45:52;;;;;;;3.65;2.13;;;19.70;99.90;;;;;;5069977;28;20037;-72
2023/09/21 00:48:25;;;;;;;4.73;1.87;;;19.80;99.90;;;;;;5083217;28;20047;-73
2023/09/21 00:50:53;;;;;;;4.35;2.30;;;19.80;99.90;;;;;;5081627;28;20293;-71
2023/09/21 00:53:20;;;;;;;3.95;2.40;;;19.80;99.90;;;;;;5070803;28;20433;-72
2023/09/21 00:55:53;;;;;;;2.67;1.92;;;19.90;99.90;;;;;;5078709;28;20013;-73
2023/09/21 00:58:21;;;;;;;2.75;1.90;;;19.80;99.90;;;;;;5076587;28;20044;-72
2023/09/21 01:00:49;;;;;;;3.53;1.98;;;19.90;99.90;;;;;;5075900;28;20016;-72
2023/09/21 01:03:15;;;;;;;1.85;1.65;;;19.80;99.90;;;;;;5080205;28;20021;-72
2023/09/21 01:05:44;;;;;;;2.72;2.00;;;19.90;99.90;;;;;;5074590;28;20047;-72
2023/09/21 01:08:13;;;;;;;4.25;2.00;;;19.90;99.90;;;;;;5079498;28;20028;-74
2023/09/21 01:10:41;;;;;;;2.42;1.60;;;19.90;99.90;;;;;;5065619;28;20040;-72
2023/09/21 01:13:08;;;;;;;4.15;2.00;;;19.80;99.90;;;;;;5074107;28;20469;-72
2023/09/21 01:15:34;;;;;;;2.75;2.28;;;19.90;99.90;;;;;;5074081;28;20032;-71
2023/09/21 01:18:04;;;;;;;2.38;1.90;;;19.80;99.90;;;;;;5071950;28;20286;-72
2023/09/21 01:20:32;;;;;;;2.30;1.80;;;19.80;99.90;;;;;;5078910;28;20028;-73
2023/09/21 01:23:17;;;;;;;2.67;2.03;;;19.80;99.90;;;;;;5073621;28;20465;-72
2023/09/21 01:25:44;;;;;;;3.70;2.30;;;19.80;99.90;;;;;;5070241;28;20040;-72
2023/09/21 01:28:17;;;;;;;3.42;2.35;;;19.80;99.90;;;;;;5072068;28;20078;-72
2023/09/21 01:30:43;;;;;;;;;;;19.80;99.90;;;;;;5079316;28;20107;-72
2023/09/21 01:33:11;;;;;;;3.17;2.13;;;19.80;99.90;;;;;;5073459;28;19905;-72
2023/09/21 01:35:37;;;;;;;2.70;2.17;;;19.80;99.90;;;;;;5072035;28;20086;-72
2023/09/21 01:38:06;;;;;;;5.60;2.03;;;19.80;99.90;;;;;;5074567;28;20032;-73
2023/09/21 01:40:36;;;;;;;7.25;2.20;;;19.80;99.90;;;;;;5081118;28;20028;-73
2023/09/21 01:43:06;;;;;;;3.22;2.13;;;19.70;99.90;;;;;;5074624;28;20028;-72
2023/09/21 01:45:33;;;;;;;4.90;2.22;;;19.70;99.90;;;;;;5069395;28;20036;-72
2023/09/21 01:48:00;;;;;;;3.10;2.30;;;19.70;99.90;;;;;;5077471;28;20086;-71
2023/09/21 01:50:28;;;;;;;5.30;2.13;;;19.70;99.90;;;;;;5073326;28;20051;-72
2023/09/21 01:52:55;;;;;;;2.38;1.60;;;19.80;99.90;;;;;;5066158;28;20052;-72
2023/09/21 01:55:20;;;;;;;3.42;2.25;;;19.80;99.90;;;;;;5074141;28;20032;-72
2023/09/21 01:57:46;;;;;;;2.83;2.20;;;19.80;99.90;;;;;;5073509;28;20420;-72
2023/09/21 02:00:21;;;;;;;2.15;1.95;;;19.70;99.90;;;;;;5078234;28;20024;-72
2023/09/21 02:02:50;;;;;;;4.70;2.20;;;19.70;99.90;;;;;;5073660;28;20020;-72
2023/09/21 02:05:16;;;;;;;2.58;1.75;;;19.80;99.90;;;;;;5077559;28;20682;-73
2023/09/21 02:07:43;;;;;;;2.63;1.83;;;19.80;99.90;;;;;;5072760;28;20028;-72
2023/09/21 02:10:10;;;;;;;2.85;2.03;;;19.80;99.90;;;;;;5080532;28;20111;-71
2023/09/21 02:12:39;;;;;;;3.88;2.00;;;19.70;99.90;;;;;;5077685;28;20028;-73
2023/09/21 02:15:17;;;;;;;4.78;2.10;;;19.70;99.90;;;;;;5071698;28;20021;-71
2023/09/21 02:17:42;;;;;;;3.63;2.30;;;19.70;99.90;;;;;;5079381;28;20051;-72
2023/09/21 02:20:16;;;;;;;2.75;2.13;;;19.70;99.90;;;;;;5074899;28;20024;-73
2023/09/21 02:22:49;;;;;;;2.53;1.98;;;19.70;99.90;;;;;;5075673;28;20024;-71
2023/09/21 02:25:16;;;;;;;2.72;2.15;;;19.70;99.90;;;;;;5070620;28;20037;-72
2023/09/21 02:27:48;;;;;;;6.63;2.25;;;19.60;99.90;;;;;;5075328;28;20183;-71
2023/09/21 02:30:22;;;;;;;4.07;2.35;;;19.60;99.90;;;;;;5074655;28;20031;-72
2023/09/21 02:32:49;;;;;;;3.22;2.20;;;19.60;99.90;;;;;;5069867;28;20020;-72
2023/09/21 02:35:16;;;;;;;4.35;2.00;;;19.60;99.90;;;;;;5069187;28;20028;-72
2023/09/21 02:37:46;;;;;;;2.47;2.05;;;19.60;99.90;;;;;;5078877;28;20051;-73
2023/09/21 02:40:17;;;;;;;3.30;2.00;;;19.50;99.90;;;;;;5075762;28;20119;-73
2023/09/21 02:42:44;;;;;;;2.15;1.90;;;19.60;99.90;;;;;;5067161;28;20036;-72
2023/09/21 02:45:12;;;;;;;3.70;2.10;;;19.60;99.90;;;;;;5068690;28;20395;-72
2023/09/21 02:47:44;;;;;;;3.25;1.77;;;19.60;99.90;;;;;;5076292;28;20039;-72
2023/09/21 02:50:14;;;;;;;5.65;2.20;;;19.60;99.90;;;;;;5082658;28;20035;-73
2023/09/21 02:52:45;;;;;;;4.47;2.03;;;19.60;99.90;;;;;;5076815;28;20519;-72
2023/09/21 02:55:20;;;;;;;3.88;1.73;;;19.60;99.90;;;;;;5074808;28;20035;-72
2023/09/21 02:57:48;;;;;;;3.53;1.90;;;19.60;99.90;;;;;;5062874;28;20016;-72
2023/09/21 03:00:22;;;;;;;2.10;1.73;;;19.70;99.90;;;;;;5073765;28;20052;-72
2023/09/21 03:02:49;;;;;;;3.10;2.00;;;19.60;99.90;;;;;;5063862;28;20108;-72
2023/09/21 03:05:16;;;;;;;3.92;1.65;;;19.60;99.90;;;;;;5072079;28;20045;-72
2023/09/21 03:07:43;;;;;;;3.58;2.17;;;19.50;99.90;;;;;;5070164;28;20065;-71
2023/09/21 03:10:10;;;;;;;2.33;1.77;;;19.50;99.90;;;;;;5073935;28;20089;-74
2023/09/21 03:12:39;;;;;;;4.47;1.85;;;19.50;99.90;;;;;;5078731;28;20048;-73
2023/09/21 03:15:18;;;;;;;2.88;2.20;;;19.60;99.90;;;;;;5066939;28;20056;-72
2023/09/21 03:17:44;;;;;;;2.38;2.10;;;19.60;99.90;;;;;;5075635;28;20112;-74
2023/09/21 03:20:12;;;;;;;4.20;1.60;;;19.60;99.90;;;;;;5070890;28;20036;-72
2023/09/21 03:22:39;;;;;;;4.10;2.13;;;19.60;99.90;;;;;;5072211;28;20027;-72
2023/09/21 03:25:11;;;;;;;6.47;2.03;;;19.60;99.90;;;;;;5079612;28;20096;-72
2023/09/21 03:27:40;;;;;;;2.40;1.60;;;19.60;99.90;;;;;;5079632;28;20129;-72
2023/09/21 03:30:10;;;;;;;1.77;1.67;;;19.70;99.90;;;;;;5071500;28;20039;-72
2023/09/21 03:32:38;;;;;;;2.25;1.80;;;19.70;99.90;;;;;;5068189;28;20021;-72
2023/09/21 03:35:06;;;;;;;3.15;2.38;;;19.70;99.90;;;;;;5074841;28;20055;-72
2023/09/21 03:37:32;;;;;;;3.70;2.25;;;19.80;99.90;;;;;;5080743;28;20481;-72
2023/09/21 03:39:58;;;;;;;2.20;1.60;;;19.80;99.90;;;;;;5073868;28;20063;-72
2023/09/21 03:42:24;;;;;;;3.90;2.03;;;19.80;99.90;;;;;;5071882;28;20031;-73
2023/09/21 03:44:50;;;;;;;1.83;1.52;;;19.80;99.90;;;;;;5076537;28;20084;-73
2023/09/21 03:47:19;;;;;;;3.38;2.00;;;19.90;99.90;;;;;;5073530;28;20541;-72
2023/09/21 03:49:44;;;;;;;2.40;1.92;;;19.90;99.90;;;;;;5074927;28;20469;-72
2023/09/21 03:52:16;;;;;;;4.93;1.92;;;19.90;99.90;;;;;;5072463;28;20031;-72
2023/09/21 03:54:46;;;;;;;3.83;2.20;;;19.90;99.90;;;;;;5074972;28;20024;-72
2023/09/21 03:57:14;;;;;;;2.25;1.80;;;20.00;99.90;;;;;;5068901;28;20031;-72
2023/09/21 03:59:40;;;;;;;5.15;2.00;;;20.00;99.90;;;;;;5071861;28;20020;-74
2023/09/21 04:02:09;;;;;;;3.75;2.00;;;20.10;99.90;;;;;;5070787;28;20025;-72
2023/09/21 04:04:36;;;;;;;4.10;1.88;;;20.10;99.90;;;;;;5069766;28;20032;-72
2023/09/21 04:07:02;;;;;;;4.28;2.00;;;20.00;99.90;;;;;;5080271;28;20100;-73
2023/09/21 04:09:27;;;;;;;3.33;2.00;;;20.10;99.90;;;;;;5069934;28;20115;-73
2023/09/21 04:11:56;;;;;;;2.28;1.60;;;20.10;99.90;;;;;;5075719;28;20099;-73
2023/09/21 04:14:21;;;;;;;4.30;2.20;;;20.10;99.90;;;;;;5066554;28;20024;-71
2023/09/21 04:16:48;;;;;;;1.73;1.63;;;20.10;99.90;;;;;;5062449;28;20024;-72
2023/09/21 04:19:14;;;;;;;4.28;2.22;;;20.10;99.90;;;;;;5076733;28;20420;-72
2023/09/21 04:21:39;;;;;;;4.32;1.80;;;20.10;99.90;;;;;;5072741;28;20025;-72
2023/09/21 04:24:08;;;;;;;7.30;2.53;;;20.10;99.90;;;;;;5068817;28;20032;-72
2023/09/21 04:26:33;;;;;;;5.22;1.95;;;20.10;99.90;;;;;;5079184;28;20020;-73
2023/09/21 04:28:59;;;;;;;3.45;2.17;;;20.20;99.90;;;;;;5074838;28;20035;-72
2023/09/21 04:31:25;;;;;;;3.58;1.70;;;20.20;99.90;;;;;;5075077;28;20034;-72
2023/09/21 04:33:50;;;;;;;2.13;1.75;;;20.20;99.90;;;;;;5076039;28;20489;-72
2023/09/21 04:36:16;;;;;;;2.88;1.90;;;20.20;99.90;;;;;;5069232;28;20431;-72
2023/09/21 04:38:42;;;;;;;3.30;2.30;;;20.20;99.90;;;;;;5072043;28;20036;-73
2023/09/21 04:41:15;;;;;;;2.95;1.85;;;20.30;99.90;;;;;;5073172;28;20032;-72
2023/09/21 04:43:41;;;;;;;2.97;2.20;;;20.30;99.90;;;;;;5070848;28;20420;-72
2023/09/21 04:46:07;;;;;;;2.58;1.80;;;20.30;99.90;;;;;;5078659;28;20032;-72
2023/09/21 04:48:33;;;;;;;5.40;1.92;;;20.20;99.90;;;;;;5071389;28;20517;-72
2023/09/21 04:50:59;;;;;;;4.68;2.40;;;20.30;99.90;;;;;;5082261;28;20452;-72
2023/09/21 04:53:27;;;;;;;3.33;1.95;;;20.30;99.90;;;;;;5074086;28;20023;-72
2023/09/21 04:55:53;;;;;;;3.70;2.10;;;20.30;99.90;;;;;;5068425;28;20075;-72
2023/09/21 04:58:20;;;;;;;4.65;1.88;;;20.30;99.90;;;;;;5074558;28;20024;-72
2023/09/21 05:00:46;;;;;;;2.58;1.73;;;20.30;99.90;;;;;;5067705;28;20397;-73
2023/09/21 05:03:11;;;;;;;2.08;1.85;;;20.30;99.90;;;;;;5074294;28;20036;-72
2023/09/21 05:05:37;;;;;;;4.47;2.08;;;20.30;99.90;;;;;;5072526;28;20481;-72
2023/09/21 05:08:03;;;;;;;4.97;2.22;;;20.40;99.90;;;;;;5074241;28;20450;-73
2023/09/21 05:10:30;;;;;;;5.32;2.40;;;20.30;99.90;;;;;;5072911;28;20029;-72
2023/09/21 05:12:57;;;;;;;4.30;2.65;;;20.30;99.90;;;;;;5073916;28;20142;-72
2023/09/21 05:15:24;;;;;;;3.33;2.00;;;20.30;99.90;;;;;;5083229;28;20020;-72
2023/09/21 05:17:49;;;;;;;3.10;2.10;;;20.30;99.90;;;;;;5071510;28;20055;-72
2023/09/21 05:20:16;;;;;;;3.35;2.33;;;20.40;99.90;;;;;;5071565;28;20056;-72
2023/09/21 05:22:42;;;;;;;3.60;2.10;;;20.40;99.90;;;;;;5082115;28;20315;-72
2023/09/21 05:25:09;;;;;;;5.30;2.22;;;20.30;99.90;;;;;;5071308;28;20025;-72
2023/09/21 05:27:36;;;;;;;4.55;2.45;;;20.40;99.90;;;;;;5067974;28;20049;-72
2023/09/21 05:30:03;;;;;;;3.22;2.00;;;20.40;99.90;;;;;;5081262;28;20395;-72
2023/09/21 05:32:32;;;;;;;5.47;2.40;;;20.30;99.90;;;;;;5068701;28;20389;-72
2023/09/21 05:34:59;;;;;;;3.83;2.35;;;20.30;99.90;;;;;;5076599;28;20027;-73
2023/09/21 05:37:25;;;;;;;4.05;2.25;;;20.30;99.90;;;;;;5082008;28;20024;-72
2023/09/21 05:39:51;;;;;;;3.85;2.30;;;20.40;99.90;;;;;;5068589;28;20036;-72
2023/09/21 05:42:17;;;;;;;5.43;2.45;;;20.30;99.90;;;;;;5078465;28;20461;-72
2023/09/21 05:44:43;;;;;;;3.65;1.83;;;20.40;99.90;;;;;;5078282;28;20063;-72
2023/09/21 05:47:10;;;;;;;4.45;2.15;;;20.40;99.90;;;;;;5076691;28;20043;-72
2023/09/21 05:49:37;;;;;;;3.75;2.10;;;20.40;99.90;;;;;;5081667;28;20067;-72
2023/09/21 05:52:13;;;;;;;3.90;2.47;;;20.40;99.90;;;;;;5074961;28;20024;-72
2023/09/21 05:54:44;;;;;;;3.53;1.95;;;20.30;99.90;;;;;;5068640;28;20035;-73
2023/09/21 05:57:11;;;;;;;2.15;1.83;;;20.40;99.90;;;;;;5075792;28;20016;-74
2023/09/21 05:59:37;;;;;;;2.72;2.03;;;20.40;99.90;;;;;;5077099;28;20078;-74
2023/09/21 06:02:07;;;;;;;4.28;2.40;;;20.30;99.90;;;;;;5077713;28;20472;-75
2023/09/21 06:04:34;;;;;;;3.85;2.78;;;20.40;99.90;;;;;;5070915;28;20032;-74
2023/09/21 06:07:00;;;;;;;6.70;2.13;;;20.30;99.90;;;;;;5077309;28;20024;-73
2023/09/21 06:09:26;;;;;;;2.95;2.50;;;20.30;99.90;;;;;;5075488;28;20054;-74
2023/09/21 06:11:52;;;;;;;3.03;2.20;;;20.40;99.90;;;;;;5069606;28;20028;-74
2023/09/21 06:14:19;;;;;;;6.65;2.38;;;20.30;99.90;;;;;;5068393;28;20028;-75
2023/09/21 06:16:45;;;;;;;4.03;2.13;;;20.30;99.90;;;;;;5082192;28;20074;-74
2023/09/21 06:19:12;;;;;;;6.22;2.75;;;20.20;99.90;;;;;;5069613;28;20028;-74
2023/09/21 06:21:39;;;;;;;3.60;2.45;;;20.20;99.90;;;;;;5077206;28;20023;-75
2023/09/21 06:24:09;;;;;;;3.35;2.22;;;20.20;99.90;;;;;;5080138;28;20024;-75
2023/09/21 06:26:36;;;;;;;4.82;2.92;;;20.10;99.90;;;;;;5069402;28;20035;-73
2023/09/21 06:29:03;;;;;;;5.15;2.67;;;20.10;99.90;;;;;;5075612;28;20056;-73
2023/09/21 06:31:28;;;;;;;3.95;2.33;;;20.00;99.90;;;;;;5072425;28;20534;-72
2023/09/21 06:33:58;;;;;;;5.15;2.53;;;20.10;99.90;;;;;;5067621;28;20113;-75
2023/09/21 06:36:27;;;;;;;4.53;2.58;;;20.00;99.90;;;;;;5075583;28;20024;-73
2023/09/21 06:38:54;;;;;;;4.50;2.85;;;20.00;99.90;;;;;;5073318;28;20380;-74
2023/09/21 06:41:20;;;;;;;3.67;2.42;;;20.00;99.90;;;;;;5073634;28;20031;-75
2023/09/21 06:43:46;;;;;;;4.85;2.70;;;20.10;99.90;;;;;;5076106;28;20021;-75
2023/09/21 06:46:12;;;;;;;4.25;2.50;;;20.10;99.90;;;;;;5071626;28;20089;-75
2023/09/21 06:48:38;;;;;;;6.32;2.80;;;20.10;99.90;;;;;;5074591;28;20499;-75
2023/09/21 06:51:05;;;;;;;3.80;3.00;;;20.10;99.90;;;;;;5077440;28;20056;-74
2023/09/21 06:53:31;;;;;;;2.97;2.40;;;20.00;99.90;;;;;;5069488;28;20066;-74
2023/09/21 06:55:58;;;;;;;3.13;2.50;;;20.00;99.90;;;;;;5088103;28;20043;-75
2023/09/21 06:58:24;;;;;;;5.13;2.60;;;20.00;99.90;;;;;;5077414;28;20402;-72
2023/09/21 07:00:50;;;;;;;4.22;2.83;;;20.00;99.90;;;;;;5068095;28;20036;-73
2023/09/21 07:03:17;;;;;;;4.32;3.10;;;20.00;99.90;;;;;;5072473;28;20032;-72
2023/09/21 07:05:44;;;;;;;4.30;2.95;;;20.00;99.90;;;;;;5080218;28;20020;-72
2023/09/21 07:08:10;;;;;;;5.38;2.72;;;20.00;99.90;;;;;;5072051;28;20033;-73
2023/09/21 07:10:36;;;;;;;5.72;3.30;;;20.00;99.90;;;;;;5075800;28;20488;-74
2023/09/21 07:13:03;;;;;;;4.22;3.00;;;19.90;99.90;;;;;;5077752;28;20032;-72
2023/09/21 07:15:29;;;;;;;3.85;2.80;;;19.90;99.90;;;;;;5069823;28;20522;-72
2023/09/21 07:17:56;;;;;;;8.50;3.50;;;20.00;99.90;;;;;;5066354;28;20063;-72
2023/09/21 07:20:23;;;;;;;5.75;3.70;;;19.90;99.90;;;;;;5071370;28;20016;-73
2023/09/21 07:22:56;;;;;;;6.13;3.60;;;20.00;99.90;;;;;;5071180;28;20009;-73
2023/09/21 07:25:25;;;;;;;7.05;3.70;;;19.80;99.90;;;;;;5067630;28;20561;-73
2023/09/21 07:27:54;;;;;;;6.93;3.90;;;19.70;99.90;;;;;;5072270;28;20016;-73
2023/09/21 07:30:23;;;;;;;7.25;4.30;;;19.70;99.90;;;;;;5069116;28;20032;-73
2023/09/21 07:32:49;;;;;;;6.85;3.70;;;19.60;99.90;;;;;;5072808;28;20020;-74
2023/09/21 07:35:15;;;;;;;5.82;3.72;;;19.70;99.90;;;;;;5075386;28;20040;-72
2023/09/21 07:37:46;;;;;;;5.85;3.92;;;19.70;99.90;;;;;;5066441;28;20024;-72
2023/09/21 07:40:16;;;;;;;5.70;3.72;;;19.70;99.90;;;;;;5068792;28;20071;-72
2023/09/21 07:42:45;;;;;;;3.95;3.50;;;19.80;99.90;;;;;;5069322;28;20485;-71
2023/09/21 07:45:12;;;;;;;7.35;3.97;;;19.80;99.90;;;;;;5067152;28;20040;-72
2023/09/21 07:47:38;;;;;;;6.63;3.83;;;19.80;99.90;;;;;;5065369;28;20027;-72
2023/09/21 07:50:05;;;;;;;7.03;3.63;;;19.70;99.90;;;;;;5070029;28;20099;-72
2023/09/21 07:52:32;;;;;;;5.65;3.92;;;19.70;99.90;;;;;;5075331;28;20016;-72
2023/09/21 07:55:02;;;;;;;8.38;4.38;;;19.80;99.90;;;;;;5076841;28;20085;-72
2023/09/21 07:57:34;;;;;;;7.85;4.10;;;19.90;99.90;;;;;;5064121;28;20497;-72
2023/09/21 08:00:01;;;;;;;;;;;19.80;99.90;;;;;;5079333;28;20025;-72
2023/09/21 08:02:27;;;;;;;6.30;3.92;;;19.80;99.90;;;;;;5071719;28;19916;-71
2023/09/21 08:04:55;;;;;;;6.57;3.90;;;19.70;99.90;;;;;;5064019;28;20037;-71
2023/09/21 08:07:25;;;;;;;6.20;3.83;;;19.80;99.90;;;;;;5076135;28;20377;-72
2023/09/21 08:09:54;;;;;;;4.20;3.80;;;19.80;99.90;;;;;;5066185;28;20141;-71
2023/09/21 08:12:21;;;;;;;10.38;3.92;;;19.80;99.90;;;;;;5072325;28;20496;-72
2023/09/21 08:14:47;;;;;;;6.30;3.85;;;19.80;99.90;;;;;;5068457;28;20020;-72
2023/09/21 08:17:13;;;;;;;5.57;3.70;;;19.90;99.90;;;;;;5069964;28;20042;-72
2023/09/21 08:19:40;;;;;;;4.78;3.90;;;19.90;99.90;;;;;;5075292;28;20044;-72
2023/09/21 08:22:06;;;;;;;6.07;3.90;;;19.80;99.90;;;;;;5071499;28;20021;-72
2023/09/21 08:24:35;;;;;;;4.35;3.47;;;19.70;99.90;;;;;;5072925;28;20508;-73
2023/09/21 08:27:02;;;;;;;4.00;3.60;;;19.80;99.90;;;;;;5066492;28;20017;-72
2023/09/21 08:29:28;;;;;;;8.40;3.58;;;19.80;99.90;;;;;;5073651;28;20029;-72
2023/09/21 08:31:53;;;;;;;5.28;3.53;;;19.80;99.90;;;;;;5066299;28;20647;-72
2023/09/21 08:34:19;;;;;;;4.57;2.95;;;19.90;99.90;;;;;;5077435;28;20024;-72
2023/09/21 08:36:45;;;;;;;3.88;3.00;;;19.90;99.90;;;;;;5072726;28;20025;-72
2023/09/21 08:39:11;;;;;;;6.10;3.88;;;19.90;99.90;;;;;;5069664;28;20559;-73
2023/09/21 08:41:45;;;;;;;6.07;3.45;;;19.90;99.90;;;;;;5068742;28;20028;-72
2023/09/21 08:44:11;;;;;;;6.22;3.88;;;19.90;99.90;;;;;;5077111;28;20107;-72
2023/09/21 08:46:38;;;;;;;4.95;3.25;;;19.90;99.90;;;;;;5072052;28;20056;-72
2023/09/21 08:49:06;;;;;;;4.38;3.10;;;20.00;99.90;;;;;;5075634;28;20033;-72
2023/09/21 08:51:37;;;;;;;4.97;3.25;;;20.00;99.90;;;;;;5069024;28;20028;-72
2023/09/21 08:54:06;;;;;;;5.22;3.17;;;20.00;99.90;;;;;;5070478;28;20024;-72
2023/09/21 08:56:33;;;;;;;4.22;3.30;;;20.10;99.90;;;;;;5069767;28;20365;-72
2023/09/21 08:59:00;;;;;;;4.93;3.08;;;20.20;99.90;;;;;;5077574;28;20526;-72
2023/09/21 09:01:27;;;;;;;4.18;3.28;;;20.20;99.90;;;;;;5072467;28;20028;-72
2023/09/21 09:03:53;;;;;;;5.55;3.33;;;20.20;99.90;;;;;;5079671;28;20103;-73
2023/09/21 09:06:19;;;;;;;3.53;2.83;;;20.20;99.90;;;;;;5069798;28;20091;-72
2023/09/21 09:08:46;;;;;;;3.05;2.75;;;20.20;99.90;;;;;;5078883;28;20035;-73
2023/09/21 09:11:31;;;;;;;4.03;2.65;;;20.20;99.90;;;;;;5073312;28;20115;-73
2023/09/21 09:13:57;;;;;;;3.92;2.65;;;20.30;99.90;;;;;;5082010;28;20472;-73
2023/09/21 09:16:30;;;;;;;4.90;2.40;;;20.20;99.90;;;;;;5075924;28;20067;-71
2023/09/21 09:18:58;;;;;;;3.50;2.63;;;20.30;99.90;;;;;;5077387;28;20031;-72
2023/09/21 09:21:25;;;;;;;3.00;2.33;;;20.30;99.90;;;;;;5078602;28;20012;-72
2023/09/21 09:23:50;;;;;;;4.28;2.63;;;20.30;99.90;;;;;;5074376;28;20588;-72
2023/09/21 09:26:18;;;;;;;4.55;2.50;;;20.40;99.90;;;;;;5085091;28;20063;-73
2023/09/21 09:28:45;;;;;;;3.65;2.70;;;20.30;99.90;;;;;;5076467;28;20029;-74
2023/09/21 09:31:17;;;;;;;3.92;2.83;;;20.30;99.90;;;;;;5068028;28;20037;-73
2023/09/21 09:33:47;;;;;;;3.00;2.50;;;20.40;99.90;;;;;;5077996;28;20016;-74
2023/09/21 09:36:13;;;;;;;6.63;2.92;;;20.40;99.90;;;;;;5079548;28;20033;-73
2023/09/21 09:38:40;;;;;;;4.65;2.47;;;20.40;99.90;;;;;;5078465;28;20491;-73
2023/09/21 09:41:06;;;;;;;2.50;2.30;;;20.50;99.90;;;;;;5070699;28;20043;-73
2023/09/21 09:43:36;;;;;;;3.75;2.30;;;20.50;99.90;;;;;;5079428;28;20394;-74
2023/09/21 09:46:04;;;;;;;5.50;2.70;;;20.50;99.90;;;;;;5069638;28;20123;-73
2023/09/21 09:48:32;;;;;;;2.45;2.10;;;20.50;99.90;;;;;;5075427;28;20017;-74
2023/09/21 09:51:05;;;;;;;5.65;2.35;;;20.50;99.90;;;;;;5069930;28;20438;-73
2023/09/21 09:53:34;;;;;;;5.40;2.30;;;20.50;99.90;;;;;;5079480;28;20094;-73
2023/09/21 09:56:08;;;;;;;3.53;2.60;;;20.50;99.90;;;;;;5082743;28;20503;-72
2023/09/21 09:58:41;;;;;;;2.88;2.20;;;20.50;99.90;;;;;;5071094;28;20032;-72
2023/09/21 10:01:09;;;;;;;4.20;2.50;;;20.60;99.90;;;;;;5082413;28;20073;-72
2023/09/21 10:03:38;;;;;;;3.67;2.60;;;20.50;99.90;;;;;;5077271;28;20526;-72
2023/09/21 10:06:09;;;;;;;3.00;2.30;;;20.50;99.90;;;;;;5067995;28;20040;-72
2023/09/21 10:08:39;;;;;;;5.40;2.35;;;20.50;99.90;;;;;;5070125;28;20040;-73
2023/09/21 10:11:09;;;;;;;3.67;2.28;;;20.60;99.90;;;;;;5075429;28;20032;-73
2023/09/21 10:13:47;;;;;;;5.00;2.13;;;20.60;99.90;;;;;;5067447;28;20076;-73
2023/09/21 10:16:13;;;;;;;2.30;2.10;;;20.70;99.90;;;;;;5073767;28;20036;-73
2023/09/21 10:18:40;;;;;;;2.60;2.00;;;20.70;99.90;;;;;;5074582;28;20028;-72
2023/09/21 10:21:23;;;;;;;6.63;1.98;;;20.80;99.90;;;;;;5073397;28;20020;-72
2023/09/21 10:24:16;;;;;;;4.80;2.55;;;20.70;99.90;;;;;;5069815;28;20017;-73
2023/09/21 10:27:03;;;;;;;3.50;2.03;;;20.70;99.90;;;;;;5076580;28;20060;-73
2023/09/21 10:29:40;;;;;;;5.47;2.42;;;20.70;99.90;;;;;;5068313;28;20020;-73
2023/09/21 10:32:06;;;;;;;3.22;2.28;;;20.60;99.90;;;;;;5076293;28;20021;-72
2023/09/21 10:34:32;;;;;;;4.45;2.58;;;20.60;99.90;;;;;;5075338;28;20024;-73
2023/09/21 10:37:06;;;;;;;2.50;2.10;;;20.70;99.90;;;;;;5078845;28;20024;-73
2023/09/21 10:39:33;;;;;;;2.40;1.95;;;20.80;99.90;;;;;;5067053;28;20044;-74
2023/09/21 10:42:04;;;;;;;4.18;2.33;;;20.80;99.90;;;;;;5071053;28;20355;-74
2023/09/21 10:44:52;;;;;;;4.00;2.43;;;20.80;99.90;;;;;;5068933;28;20085;-74
2023/09/21 10:47:38;;;;;;;3.65;2.05;;;20.70;99.90;;;;;;5073870;28;20542;-74
2023/09/21 10:50:11;;;;;;;3.42;2.42;;;20.70;99.90;;;;;;5070468;28;20067;-74
2023/09/21 10:52:44;;;;;;;4.45;2.40;;;20.70;99.90;;;;;;5064761;28;20048;-74
2023/09/21 10:55:12;;;;;;;2.42;2.10;;;20.80;99.90;;;;;;5073087;28;20107;-74
2023/09/21 10:57:39;;;;;;;2.80;2.05;;;20.70;99.90;;;;;;5073177;28;20044;-74
2023/09/21 11:00:08;;;;;;;3.88;2.03;;;20.70;99.90;;;;;;5068925;28;20029;-74
2023/09/21 11:02:38;;;;;;;2.80;1.88;;;20.60;99.90;;;;;;5072033;28;20374;-74
2023/09/21 11:05:09;;;;;;;2.65;2.03;;;20.70;99.90;;;;;;5071149;28;20036;-74
2023/09/21 11:07:36;;;;;;;4.90;2.13;;;20.80;99.90;;;;;;5073035;28;20017;-73
2023/09/21 11:10:06;;;;;;;5.60;2.15;;;20.90;99.90;;;;;;5069928;28;20036;-73
2023/09/21 11:12:32;;;;;;;3.17;2.15;;;20.90;99.90;;;;;;5072563;28;20484;-73
2023/09/21 11:14:59;;;;;;;3.10;2.00;;;21.00;99.90;;;;;;5069892;28;20037;-73
2023/09/21 11:17:27;;;;;;;2.35;1.75;;;21.10;99.90;;;;;;5066167;28;20028;-76
2023/09/21 11:19:53;;;;;;;2.58;1.90;;;21.10;99.90;;;;;;5061313;28;20061;-75
2023/09/21 11:22:19;;;;;;;2.63;2.10;;;21.00;99.90;;;;;;5069552;28;20020;-75
2023/09/21 11:24:46;;;;;;;2.58;1.98;;;21.00;99.90;;;;;;5072931;28;20040;-75
2023/09/21 11:27:14;;;;;;;2.83;1.75;;;21.00;99.90;;;;;;5076509;28;20016;-75
2023/09/21 11:29:42;;;;;;;5.57;2.60;;;21.10;99.90;;;;;;5069323;28;20077;-76
2023/09/21 11:32:17;;;;;;;2.22;1.70;;;21.10;99.90;;;;;;5068787;28;20088;-75
2023/09/21 11:34:44;;;;;;;2.30;1.73;;;21.20;99.90;;;;;;5073298;28;20021;-73
2023/09/21 11:37:11;;;;;;;2.03;1.83;;;21.10;99.90;;;;;;5068379;28;20056;-75
2023/09/21 11:39:42;;;;;;;1.92;1.52;;;21.20;99.90;;;;;;5075806;28;20021;-73
2023/09/21 11:42:10;;;;;;;2.65;1.83;;;21.30;99.90;;;;;;5069804;28;20063;-73
2023/09/21 11:44:42;;;;;;;2.05;1.90;;;21.30;99.90;;;;;;5071433;28;20036;-74
2023/09/21 11:47:12;;;;;;;2.63;1.70;;;21.20;99.90;;;;;;5071365;28;20028;-75
2023/09/21 11:49:38;;;;;;;1.98;1.88;;;21.20;99.90;;;;;;5073924;28;20028;-74
2023/09/21 11:52:04;;;;;;;4.22;1.90;;;21.20;99.90;;;;;;5074589;28;20059;-73
2023/09/21 11:54:35;;;;;;;5.60;2.20;;;21.30;99.90;;;;;;5070456;28;20020;-73
2023/09/21 11:57:04;;;;;;;5.35;2.13;;;21.30;99.90;;;;;;5074286;28;20958;-72
2023/09/21 11:59:34;;;;;;;3.08;2.10;;;21.30;99.90;;;;;;5078158;28;20125;-74
2023/09/21 12:02:08;;;;;;;2.72;1.83;;;21.30;99.90;;;;;;5073239;28;20027;-73
2023/09/21 12:04:38;;;;;;;3.92;1.80;;;21.40;99.90;;;;;;5077845;28;20130;-74
2023/09/21 12:07:04;;;;;;;2.80;1.70;;;21.40;99.90;;;;;;5073359;28;20063;-73
2023/09/21 12:09:30;;;;;;;2.17;1.88;;;21.40;99.90;;;;;;5067573;28;20039;-73
2023/09/21 12:11:56;;;;;;;3.13;2.00;;;21.40;99.90;;;;;;5075832;28;20025;-73
2023/09/21 12:14:22;;;;;;;3.22;1.98;;;21.40;99.90;;;;;;5071338;28;20025;-74
2023/09/21 12:16:50;;;;;;;2.65;1.65;;;21.50;99.90;;;;;;5066615;28;20096;-73
2023/09/21 12:19:19;;;;;;;2.08;1.88;;;21.40;99.90;;;;;;5068973;28;20031;-73
2023/09/21 12:21:46;;;;;;;2.15;1.35;;;21.40;99.90;;;;;;5080662;28;20031;-72
2023/09/21 12:24:12;;;;;;;1.40;1.25;;;21.20;99.90;;;;;;5068798;28;20112;-73
2023/09/21 12:26:38;;;;;;;2.35;1.15;;;21.00;99.90;;;;;;5069346;28;20115;-73
2023/09/21 12:29:03;;;;;;;3.08;1.05;;;21.00;99.90;;;;;;5078035;28;20035;-73
2023/09/21 12:31:29;;;;;;;2.08;1.40;;;21.00;99.90;;;;;;5072125;28;20146;-72
2023/09/21 12:33:55;;;;;;;2.08;1.23;;;20.90;99.90;;;;;;5075042;28;20036;-73
2023/09/21 12:36:23;;;;;;;2.85;1.45;;;20.80;99.90;;;;;;5068661;28;20043;-74
2023/09/21 12:38:51;;;;;;;4.25;1.33;;;20.80;99.90;;;;;;5080564;28;20540;-73
2023/09/21 12:41:16;;;;;;;1.30;1.20;;;20.80;99.90;;;;;;5067331;28;20158;-73
2023/09/21 12:43:43;;;;;;;1.40;1.30;;;20.70;99.90;;;;;;5077884;28;20127;-73
2023/09/21 12:46:08;;;;;;;2.38;1.40;;;20.70;99.90;;;;;;5064097;28;20079;-73
2023/09/21 12:48:38;;;;;;;1.40;1.30;;;20.70;99.90;;;;;;5079853;28;20024;-73
2023/09/21 12:51:04;;;;;;;1.65;1.55;;;20.60;99.90;;;;;;5077671;28;20050;-74
2023/09/21 12:53:30;;;;;;;1.75;1.38;;;20.50;99.90;;;;;;5063967;28;20028;-75